KLCG

Wayne Municipal / Stan Morris Field Airport

Wayne, Nebraska, USA
METAR KLCG 182335Z AUTO 00000KT 10SM CLR 07/01 A2957 RMK AO2 T00720010
Observed Flight Rules
Feb-18 @ 23:35 UTC (29 minutes ago) Visual Flight Rules
Wind Visibility Clouds
Calm 10 miles
  • Clear skies
Temperatures Readings
Current 7°C / 45°F
Dewpoint 1°C / 34°F
Humidity 66%
Altimeter 29.57" Hg
Pressure 1001 hPa
Elevation 436
METAR KLCG 182335Z AUTO 00000KT 10SM CLR 07/01 A2957 RMK AO2 T00720010
Observed Flight Rules
Feb-18 @ 23:35 UTC
(29 minutes ago)
VFR
Wind Visibility
Calm 10 miles
Clouds
  • Clear skies
Temperature Dewpoint
7°C / 45°F 1°C / 34°F
Humidity Altimeter Pressure
66% 29.57" Hg 1001 hPa